createdAt,value
2022-09-02T00:03:01.193Z,98271.31
2022-09-02T00:06:05.038Z,98251.69
2022-09-02T00:09:11.537Z,98260.72
2022-09-02T00:12:14.864Z,98266.25
2022-09-02T00:15:18.107Z,98272.59
2022-09-02T00:18:22.029Z,98267.28
2022-09-02T00:21:25.622Z,98272.81
2022-09-02T00:24:30.590Z,98261.84
2022-09-02T00:27:33.784Z,98273.53
2022-09-02T00:30:37.472Z,98265.59
2022-09-02T00:33:40.973Z,98262.31
2022-09-02T00:36:44.599Z,98265.72
2022-09-02T00:39:49.833Z,98260.38
2022-09-02T00:42:53.544Z,98262.34
2022-09-02T00:45:57.102Z,98268.66
2022-09-02T00:49:06.795Z,98260.53
2022-09-02T00:52:14.367Z,98235.16
2022-09-02T00:55:23.049Z,98252.97
2022-09-02T00:58:31.256Z,98250.75
2022-09-02T01:01:34.833Z,98243.28
2022-09-02T01:04:38.825Z,98242.50
2022-09-02T01:07:43.431Z,98257.28
2022-09-02T01:10:49.661Z,98256.97
2022-09-02T01:13:53.490Z,98256.81
2022-09-02T01:17:00.651Z,98251.88
2022-09-02T01:20:12.199Z,98244.28
2022-09-02T01:23:18.779Z,98257.41
2022-09-02T01:26:22.236Z,98249.56
2022-09-02T01:29:28.930Z,98234.34
2022-09-02T01:32:32.774Z,98252.06
2022-09-02T01:35:36.593Z,98251.03
2022-09-02T01:38:41.383Z,98227.06
2022-09-02T01:41:45.507Z,98244.78
2022-09-02T01:44:48.990Z,98236.25
2022-09-02T01:47:52.716Z,98225.88
2022-09-02T01:50:58.630Z,98249.00
2022-09-02T01:54:03.988Z,98254.88
2022-09-02T01:57:07.145Z,98255.66
2022-09-02T02:00:13.018Z,98253.28
2022-09-02T02:03:16.552Z,98227.28
2022-09-02T02:06:20.311Z,98243.94
2022-09-02T02:09:26.062Z,98245.94
2022-09-02T02:12:29.771Z,98246.19
2022-09-02T02:18:37.288Z,98242.13
2022-09-02T02:21:41.027Z,98233.16
2022-09-02T02:24:45.644Z,98241.03
2022-09-02T02:27:49.399Z,98237.47
2022-09-02T02:30:53.036Z,98233.47
2022-09-02T02:33:56.371Z,98233.41
2022-09-02T02:37:00.009Z,98240.81
2022-09-02T02:40:06.347Z,98241.94
2022-09-02T02:43:09.704Z,98246.53
2022-09-02T02:46:13.611Z,98245.06
2022-09-02T02:49:17.548Z,98237.69
2022-09-02T02:52:20.928Z,98241.59
2022-09-02T02:55:26.812Z,98242.19
2022-09-02T02:58:30.955Z,98250.13
2022-09-02T03:01:35.238Z,98242.50
2022-09-02T03:04:41.352Z,98243.56
2022-09-02T03:07:44.976Z,98242.25
2022-09-02T03:10:54.419Z,98225.88
2022-09-02T03:14:00.546Z,98239.63
2022-09-02T03:17:05.116Z,98240.06
2022-09-02T03:20:10.022Z,98233.72
2022-09-02T03:23:17.412Z,98227.22
2022-09-02T03:26:26.100Z,98227.78
2022-09-02T03:29:30.089Z,98240.34
2022-09-02T03:34:26.245Z,98235.56
2022-09-02T03:37:32.883Z,98229.06
2022-09-02T03:40:37.089Z,98227.84
2022-09-02T03:43:40.288Z,98232.88
2022-09-02T03:46:43.649Z,98220.63
2022-09-02T03:49:49.319Z,98224.00
2022-09-02T03:52:53.250Z,98229.75
2022-09-02T03:55:57.279Z,98227.72
2022-09-02T03:59:03.009Z,98232.28
2022-09-02T04:02:08.141Z,98202.81
2022-09-02T04:05:15.987Z,98217.38
2022-09-02T04:08:21.104Z,98196.03
2022-09-02T04:11:25.383Z,98198.66
2022-09-02T04:14:30.335Z,98225.97
2022-09-02T04:18:28.684Z,98222.19
2022-09-02T04:22:13.658Z,98224.81
2022-09-02T04:25:17.319Z,98232.34
2022-09-02T04:28:22.912Z,98223.38
2022-09-02T04:31:29.878Z,98242.03
2022-09-02T04:34:34.124Z,98230.66
2022-09-02T04:37:39.548Z,98235.91
2022-09-02T04:40:44.452Z,98242.38
2022-09-02T04:43:48.109Z,98236.88
2022-09-02T04:46:51.434Z,98240.22
2022-09-02T04:49:58.584Z,98240.59
2022-09-02T04:53:06.135Z,98241.06
2022-09-02T04:56:11.896Z,98229.91
2022-09-02T04:59:16.115Z,98239.53
2022-09-02T05:02:27.542Z,98239.28
2022-09-02T05:05:31.945Z,98236.63
2022-09-02T05:08:37.735Z,98236.13
2022-09-02T05:11:42.705Z,98245.13
2022-09-02T05:14:49.099Z,98237.78
2022-09-02T05:17:54.680Z,98243.50
2022-09-02T05:20:58.003Z,98246.25
2022-09-02T05:24:02.771Z,98236.66
2022-09-02T05:27:06.792Z,98241.41
2022-09-02T05:30:12.857Z,98259.91
2022-09-02T05:33:16.836Z,98247.84
2022-09-02T05:36:24.643Z,98232.47
2022-09-02T05:39:32.601Z,98226.06
2022-09-02T05:42:37.411Z,98207.72
2022-09-02T05:45:41.425Z,98210.44
2022-09-02T05:49:03.451Z,98205.84
2022-09-02T05:52:10.158Z,98200.03
2022-09-02T05:55:21.713Z,98205.84
2022-09-02T05:58:25.906Z,98203.84
2022-09-02T06:01:31.017Z,98201.31
2022-09-02T06:04:40.097Z,98201.31
2022-09-02T06:08:02.024Z,98196.69
2022-09-02T06:11:13.830Z,98195.84
2022-09-02T06:14:48.124Z,98153.94
2022-09-02T06:17:53.683Z,98121.81
2022-09-02T06:20:57.083Z,98203.63
2022-09-02T06:24:06.281Z,98174.31
2022-09-02T06:27:11.075Z,98187.47
2022-09-02T06:30:17.692Z,98179.25
2022-09-02T06:33:21.159Z,98173.72
2022-09-02T06:36:28.450Z,98180.38
2022-09-02T06:39:33.156Z,98179.81
2022-09-02T06:42:38.443Z,98184.56
2022-09-02T06:46:04.539Z,98180.06
2022-09-02T06:49:12.535Z,98190.91
2022-09-02T06:52:16.725Z,98187.38
2022-09-02T06:55:21.208Z,98188.31
2022-09-02T06:58:26.111Z,98188.50
2022-09-02T07:01:32.417Z,98188.47
2022-09-02T07:04:55.715Z,98178.31
2022-09-02T07:08:00.805Z,98178.31
2022-09-02T07:11:06.896Z,98175.25
2022-09-02T07:14:11.721Z,98178.50
2022-09-02T07:17:17.692Z,98180.22
2022-09-02T07:20:25.941Z,98182.38
2022-09-02T07:23:37.958Z,98183.28
2022-09-02T07:26:45.588Z,98186.66
2022-09-02T07:29:53.005Z,98180.28
2022-09-02T07:32:57.512Z,98183.91
2022-09-02T07:36:05.010Z,98185.22
2022-09-02T07:39:16.247Z,98178.72
2022-09-02T07:42:20.391Z,98167.78
2022-09-02T07:45:25.762Z,98171.53
2022-09-02T07:48:31.143Z,98143.88
2022-09-02T07:51:35.085Z,98170.44
2022-09-02T07:54:39.007Z,98156.63
2022-09-02T07:57:42.304Z,98162.50
2022-09-02T08:00:48.453Z,98161.13
2022-09-02T08:03:53.465Z,98158.09
2022-09-02T08:06:59.563Z,98164.44
2022-09-02T08:10:02.865Z,98160.81
2022-09-02T08:13:06.873Z,98161.16
2022-09-02T08:16:11.687Z,98155.34
2022-09-02T08:19:15.964Z,98165.94
2022-09-02T08:22:19.428Z,98176.16
2022-09-02T08:25:22.888Z,98168.75
2022-09-02T08:28:26.045Z,98171.22
2022-09-02T08:31:32.157Z,98157.69
2022-09-02T08:34:35.357Z,98164.28
2022-09-02T08:37:39.545Z,98163.69
2022-09-02T08:40:45.525Z,98155.06
2022-09-02T08:43:50.764Z,98151.06
2022-09-02T08:46:59.702Z,98153.97
2022-09-02T08:50:10.994Z,98135.47
2022-09-02T08:53:24.641Z,98145.72
2022-09-02T08:56:28.426Z,98151.31
2022-09-02T08:59:32.718Z,98143.25
2022-09-02T09:02:56.527Z,98134.94
2022-09-02T09:06:08.314Z,98136.78
2022-09-02T09:09:21.598Z,98139.44
2022-09-02T09:12:35.745Z,98133.72
2022-09-02T09:15:46.047Z,98138.50
2022-09-02T09:18:58.338Z,98130.41
2022-09-02T09:22:03.433Z,98125.81
2022-09-02T09:25:11.509Z,98124.84
2022-09-02T09:28:15.170Z,98123.75
2022-09-02T09:35:08.796Z,98119.78
2022-09-02T09:38:14.440Z,98111.44
2022-09-02T09:41:21.493Z,98117.38
2022-09-02T09:44:44.945Z,98123.44
2022-09-02T09:48:11.545Z,98115.00
2022-09-02T09:51:19.185Z,98101.09
2022-09-02T09:54:22.247Z,98103.91
2022-09-02T09:57:25.466Z,98092.78
2022-09-02T10:00:41.623Z,98100.31
2022-09-02T10:03:56.751Z,98101.69
2022-09-02T10:07:01.546Z,98096.69
2022-09-02T10:10:19.694Z,98096.91
2022-09-02T10:13:25.917Z,98086.13
2022-09-02T10:16:47.396Z,98090.50
2022-09-02T10:19:56.324Z,98078.16
2022-09-02T10:23:12.838Z,98077.13
2022-09-02T10:26:27.030Z,98073.91
2022-09-02T10:29:41.028Z,98063.63
2022-09-02T10:33:06.531Z,98065.38
2022-09-02T10:36:23.323Z,98064.03
2022-09-02T10:39:39.717Z,98066.91
2022-09-02T10:42:58.314Z,98059.66
2022-09-02T10:46:02.720Z,98049.22
2022-09-02T10:49:16.140Z,98050.47
2022-09-02T10:52:42.206Z,98066.31
2022-09-02T10:55:54.838Z,98053.88
2022-09-02T10:59:05.613Z,98046.53
2022-09-02T11:02:14.996Z,98045.50
2022-09-02T11:05:23.646Z,98048.63
2022-09-02T11:08:36.546Z,98053.66
2022-09-02T11:11:47.337Z,98014.25
2022-09-02T11:15:04.292Z,98008.75
2022-09-02T11:18:15.871Z,98033.53
2022-09-02T11:21:31.842Z,97980.19
2022-09-02T11:24:45.841Z,98031.06
2022-09-02T11:28:00.637Z,98026.88
2022-09-02T11:31:08.733Z,98004.56
2022-09-02T11:34:22.678Z,98011.38
2022-09-02T11:37:32.657Z,98012.75
2022-09-02T11:40:45.384Z,98012.16
2022-09-02T11:47:45.683Z,98004.97
2022-09-02T11:51:01.698Z,98003.50
2022-09-02T11:54:07.114Z,97976.91
2022-09-02T11:57:16.428Z,97996.44
2022-09-02T12:00:31.993Z,97988.59
2022-09-02T12:03:52.130Z,97996.44
2022-09-02T12:07:31.357Z,97996.53
2022-09-02T12:11:01.168Z,97990.25
2022-09-02T12:14:07.761Z,97983.63
2022-09-02T12:17:44.829Z,97954.34
2022-09-02T12:21:16.608Z,97983.59
2022-09-02T12:24:24.377Z,97980.03
2022-09-02T12:27:33.714Z,97981.16
2022-09-02T12:31:13.119Z,97968.06
2022-09-02T12:34:53.523Z,97966.44
2022-09-02T12:37:58.490Z,97944.25
2022-09-02T12:41:20.377Z,97941.34
2022-09-02T12:44:29.531Z,97966.16
2022-09-02T12:47:43.982Z,97962.88
2022-09-02T12:51:00.246Z,97948.97
2022-09-02T12:54:05.438Z,97947.28
2022-09-02T12:57:12.105Z,97949.63
2022-09-02T13:00:26.815Z,97944.25
2022-09-02T13:04:08.066Z,97950.56
2022-09-02T13:07:47.848Z,97946.97
2022-09-02T13:11:32.032Z,97943.34
2022-09-02T13:14:55.165Z,97941.28
2022-09-02T13:18:37.595Z,97938.63
2022-09-02T13:22:09.304Z,97936.97
2022-09-02T13:25:42.897Z,97936.91
2022-09-02T13:29:12.293Z,97922.06
2022-09-02T13:32:22.143Z,97919.78
2022-09-02T13:35:28.281Z,97918.06
2022-09-02T13:38:32.856Z,97906.94
2022-09-02T13:41:37.719Z,97916.16
2022-09-02T13:44:40.985Z,97903.38
2022-09-02T13:47:46.147Z,97890.56
2022-09-02T13:50:52.006Z,97885.13
2022-09-02T13:54:22.173Z,97876.19
2022-09-02T13:57:28.426Z,97896.38
2022-09-02T14:00:34.621Z,97893.53
2022-09-02T14:03:38.861Z,97894.97
2022-09-02T14:06:45.601Z,97835.22
2022-09-02T14:09:49.362Z,97877.34
2022-09-02T14:12:56.273Z,97882.44
2022-09-02T14:16:28.138Z,97877.16
2022-09-02T14:19:31.288Z,97876.63
2022-09-02T14:22:35.763Z,97874.31
2022-09-02T14:25:40.354Z,97845.56
2022-09-02T14:28:52.452Z,97863.41
2022-09-02T14:32:12.915Z,97855.16
2022-09-02T14:35:23.374Z,97855.13
2022-09-02T14:38:28.747Z,97856.50
2022-09-02T14:41:36.056Z,97862.31
2022-09-02T14:44:41.941Z,97854.31
2022-09-02T14:47:45.259Z,97858.00
2022-09-02T14:50:50.416Z,97853.34
2022-09-02T14:53:53.787Z,97855.59
2022-09-02T14:56:57.019Z,97843.63
2022-09-02T15:00:03.332Z,97839.13
2022-09-02T15:03:08.051Z,97846.28
2022-09-02T15:06:15.173Z,97840.16
2022-09-02T15:09:18.802Z,97842.59
2022-09-02T15:12:25.579Z,97836.34
2022-09-02T15:15:30.268Z,97805.69
2022-09-02T15:18:33.550Z,97835.84
2022-09-02T15:21:36.784Z,97838.69
2022-09-02T15:24:41.252Z,97813.31
2022-09-02T15:27:44.476Z,97820.53
2022-09-02T15:34:24.044Z,97818.66
2022-09-02T15:37:27.663Z,97818.03
2022-09-02T15:40:32.914Z,97756.75
2022-09-02T15:43:36.443Z,97782.59
2022-09-02T15:46:39.690Z,97795.56
2022-09-02T15:49:44.229Z,97816.66
2022-09-02T15:52:47.618Z,97818.75
2022-09-02T15:55:50.899Z,97802.66
2022-09-02T15:59:00.943Z,97802.34
2022-09-02T16:02:04.526Z,97803.59
2022-09-02T16:05:36.970Z,97794.63
2022-09-02T16:08:40.166Z,97798.88
2022-09-02T16:11:46.008Z,97795.00
2022-09-02T16:14:51.265Z,97796.75
2022-09-02T16:17:54.438Z,97755.84
2022-09-02T16:20:59.012Z,97777.81
2022-09-02T16:24:02.564Z,97782.22
2022-09-02T16:27:06.346Z,97775.31
2022-09-02T16:30:10.025Z,97777.25
2022-09-02T16:33:14.025Z,97783.06
2022-09-02T16:36:18.636Z,97779.88
2022-09-02T16:39:22.356Z,97716.91
2022-09-02T16:42:26.093Z,97720.50
2022-09-02T16:45:29.412Z,97784.19
2022-09-02T16:48:36.604Z,97777.63
2022-09-02T16:51:41.628Z,97786.22
2022-09-02T16:54:44.846Z,97785.81
2022-09-02T16:57:48.058Z,97779.59
2022-09-02T17:00:51.459Z,97776.78
2022-09-02T17:03:54.620Z,97768.81
2022-09-02T17:06:59.181Z,97767.41
2022-09-02T17:10:02.945Z,97772.72
2022-09-02T17:13:06.135Z,97767.72
2022-09-02T17:16:09.622Z,97777.16
2022-09-02T17:19:14.573Z,97773.97
2022-09-02T17:22:19.201Z,97776.34
2022-09-02T17:25:22.412Z,97771.63
2022-09-02T17:28:27.097Z,97755.84
2022-09-02T17:31:33.215Z,97777.72
2022-09-02T17:34:37.351Z,97778.84
2022-09-02T17:37:42.486Z,97789.88
2022-09-02T17:41:06.067Z,97789.75
2022-09-02T17:44:15.624Z,97780.75
2022-09-02T17:47:20.892Z,97784.91
2022-09-02T17:50:24.084Z,97688.53
2022-09-02T17:53:29.289Z,97797.50
2022-09-02T17:56:43.553Z,97793.16
2022-09-02T18:00:02.805Z,97792.22
2022-09-02T18:03:38.698Z,97788.47
2022-09-02T18:06:45.371Z,97787.88
2022-09-02T18:09:52.532Z,97791.19
2022-09-02T18:12:57.458Z,97821.50
2022-09-02T18:16:23.181Z,97812.25
2022-09-02T18:19:43.480Z,97826.00
2022-09-02T18:23:03.159Z,97815.78
2022-09-02T18:26:17.713Z,97820.06
2022-09-02T18:29:43.609Z,97821.94
2022-09-02T18:33:03.085Z,97808.63
2022-09-02T18:36:16.243Z,97817.53
2022-09-02T18:39:34.445Z,97819.56
2022-09-02T18:42:48.753Z,97828.34
2022-09-02T18:45:53.482Z,97829.69
2022-09-02T18:49:00.327Z,97827.91
2022-09-02T18:52:07.660Z,97824.22
2022-09-02T18:55:15.005Z,97825.72
2022-09-02T18:58:33.922Z,97828.19
2022-09-02T19:01:43.745Z,97829.59
2022-09-02T19:04:47.116Z,97831.84
2022-09-02T19:08:11.935Z,97832.66
2022-09-02T19:11:17.911Z,97842.75
2022-09-02T19:14:27.660Z,97829.38
2022-09-02T19:17:30.894Z,97829.22
2022-09-02T19:20:36.957Z,97822.06
2022-09-02T19:23:44.238Z,97795.78
2022-09-02T19:26:50.577Z,97822.47
2022-09-02T19:30:03.663Z,97821.53
2022-09-02T19:33:15.464Z,97807.47
2022-09-02T19:36:20.160Z,97813.06
2022-09-02T19:39:26.776Z,97834.13
2022-09-02T19:42:30.329Z,97851.28
2022-09-02T19:45:37.350Z,97856.78
2022-09-02T19:48:40.729Z,97851.44
2022-09-02T19:51:44.559Z,97838.34
2022-09-02T19:54:48.070Z,97847.97
2022-09-02T19:57:53.208Z,97849.16
2022-09-02T20:00:59.240Z,97849.59
2022-09-02T20:04:02.461Z,97853.03
2022-09-02T20:07:05.728Z,97853.41
2022-09-02T20:10:10.437Z,97847.44
2022-09-02T20:13:15.952Z,97849.69
2022-09-02T20:16:23.622Z,97845.22
2022-09-02T20:19:28.137Z,97848.13
2022-09-02T20:22:31.738Z,97854.47
2022-09-02T20:25:46.772Z,97855.81
2022-09-02T20:29:03.726Z,97852.84
2022-09-02T20:32:24.462Z,97856.16
2022-09-02T20:35:58.029Z,97838.63
2022-09-02T20:39:15.960Z,97861.94
2022-09-02T20:42:41.958Z,97857.44
2022-09-02T20:45:53.616Z,97860.16
2022-09-02T20:49:12.828Z,97855.88
2022-09-02T20:52:22.052Z,97855.53
2022-09-02T20:55:31.804Z,97843.53
2022-09-02T20:58:46.857Z,97857.78
2022-09-02T21:01:53.620Z,97852.59
2022-09-02T21:05:03.867Z,97855.31
2022-09-02T21:08:12.844Z,97854.31
2022-09-02T21:11:19.375Z,97853.44
2022-09-02T21:14:35.766Z,97855.63
2022-09-02T21:17:48.442Z,97855.00
2022-09-02T21:21:04.103Z,97849.34
2022-09-02T21:24:12.253Z,97835.34
2022-09-02T21:27:20.526Z,97845.59
2022-09-02T21:34:29.377Z,97843.09
2022-09-02T21:37:36.659Z,97843.59
2022-09-02T21:40:52.139Z,97852.19
2022-09-02T21:44:05.077Z,97857.13
2022-09-02T21:47:20.801Z,97864.59
2022-09-02T21:50:37.050Z,97860.72
2022-09-02T21:53:57.816Z,97865.94
2022-09-02T21:57:34.438Z,97858.38
2022-09-02T22:00:39.254Z,97865.53
2022-09-02T22:03:47.147Z,97872.34
2022-09-02T22:06:57.937Z,97873.56
2022-09-02T22:10:11.770Z,97865.91
2022-09-02T22:13:15.641Z,97870.75
2022-09-02T22:16:28.095Z,97848.25
2022-09-02T22:19:38.905Z,97863.84
2022-09-02T22:22:53.200Z,97863.97
2022-09-02T22:26:08.436Z,97738.81
2022-09-02T22:29:18.069Z,97858.25
2022-09-02T22:32:25.120Z,97855.19
2022-09-02T22:35:34.204Z,97859.31
2022-09-02T22:38:44.174Z,97852.59
2022-09-02T22:41:56.414Z,97818.25
2022-09-02T22:45:26.910Z,97842.28
2022-09-02T22:48:56.220Z,97832.78
2022-09-02T22:52:26.739Z,97842.47
2022-09-02T22:55:50.714Z,97843.31
2022-09-02T22:59:10.847Z,97843.41
2022-09-02T23:02:21.362Z,97835.56
2022-09-02T23:05:46.850Z,97842.34
2022-09-02T23:08:50.054Z,97841.97
2022-09-02T23:12:02.327Z,97847.91
2022-09-02T23:15:20.582Z,97855.44
2022-09-02T23:18:30.981Z,97854.22
2022-09-02T23:21:47.119Z,97850.59
2022-09-02T23:25:00.751Z,97849.19
2022-09-02T23:28:15.140Z,97852.53
2022-09-02T23:31:29.241Z,97853.28
2022-09-02T23:34:48.648Z,97852.25
2022-09-02T23:38:08.551Z,97849.94
2022-09-02T23:41:13.114Z,97852.53
2022-09-02T23:44:18.436Z,97851.94
2022-09-02T23:47:37.614Z,97850.88
2022-09-02T23:50:56.253Z,97842.47
2022-09-02T23:54:16.714Z,97842.63
2022-09-02T23:57:32.868Z,97843.00
